GVNPGVAC

Guest
Details From GVNP - PRAIA INTERNATIONAL
To GVAC - Sal Amilcar Cabral Intl
Flight Number -
Tags generated
Created
Modified
Stats Distance 113 nm / 209 km
Max Altitude 0 ft / 0 m
Waypoints 3
Social Downloads 3
Likes 0
Share VATSIM

Download

Looking for another format? Having issues loading an existing format? Contact us
Advertisement - Login to hide

Notes

Basic altitude profile: - Ascent Rate: 2500ft/min - Ascent Speed: 250kts - Cruise Altitude: 35000ft - Cruise Speed: 420kts - Descent Rate: 1500ft/min - Descent Speed: 250kts Options: - Use NATs: yes - Use PACOTS: yes - Use low airways: yes - Use high airways: yes

Route

GVNP CVS GVAC

ID Type Via Altitude Latitude Longitude Leg Dist Tot Dist Heading (true) Name
O GVNP APT - 0 ft / 0 m 14.93258˚ -23.48919˚ - 0 nm - PRAIA INTERNATIONAL
CVS VOR - 0 ft / 0 m 16.73677˚ -22.95105˚ 112 nm 112 nm 16° / 16° SAL VOR-DME
O GVAC APT - 0 ft / 0 m 16.73821˚ -22.95050˚ 0 nm 112 nm 20° / 20° Sal Amilcar Cabral Intl

Altitude Profile

Advertisement - Login to hide

GVNP

Details ICAO GVNP (RAI)
Name PRAIA INTERNATIONAL
Region Cape Verde
Timezone Atlantic/Cape_Verde (UTC-1.0)
Stats Elevation 230 ft / 70 m (AMSL)
Location 14.932581° -23.489194°
Runways 2
Magnetic Variation 9.884° W

METAR

GVNP 170200Z 05014KT 6000 FEW016 BKN100 23/17 Q1017 NOSIG

Decode

TAF

TAF GVNP 162300Z 1700/1806 05016KT 8000 FEW016 TEMPO 1701/1707 5000 HZ NSC

Decode

Departure Runways

ID Width Length Bearing (true) Bearing (mag) Surface Threshold Offset Overrun Length
03L 98 ft / 30 m 4,188 ft / 1,277 m 21.85° 31.73° Asphalt 0 ft / 0 m 0 ft / 0 m
03R 148 ft / 45 m 6,906 ft / 2,105 m 21.78° 31.66° Asphalt 650 ft / 198 m 0 ft / 0 m
21L 148 ft / 45 m 6,906 ft / 2,105 m 201.78° 211.66° Asphalt 0 ft / 0 m 0 ft / 0 m
21R 98 ft / 30 m 4,188 ft / 1,277 m 201.86° 211.74° Asphalt 0 ft / 0 m 0 ft / 0 m

GVAC

Details ICAO GVAC (SID)
Name Sal Amilcar Cabral Intl
Region Cape Verde
Timezone Atlantic/Cape_Verde (UTC-1.0)
Stats Elevation 177 ft / 54 m (AMSL)
Location 16.738208° -22.950500°
Runways 2
Magnetic Variation 9.240° W

METAR

GVAC 170200Z 07014KT 9000 SCT014 BKN100 23/16 Q1018 NOSIG

Decode

TAF

TAF GVAC 162300Z 1700/1806 07018KT 8000 SCT014 TEMPO 1702/1708 5000 HZ

Decode

Destination Runways

ID Width Length Bearing (true) Bearing (mag) Surface Threshold Offset Overrun Length
01 148 ft / 45 m 10,826 ft / 3,300 m 359.69° 8.93° Asphalt 885 ft / 270 m 0 ft / 0 m
07 148 ft / 45 m 4,892 ft / 1,491 m 57.69° 66.93° Asphalt 200 ft / 61 m 0 ft / 0 m
19 148 ft / 45 m 10,826 ft / 3,300 m 179.69° 188.93° Asphalt 800 ft / 244 m 0 ft / 0 m
25 148 ft / 45 m 4,892 ft / 1,491 m 237.69° 246.93° Asphalt 200 ft / 61 m 0 ft / 0 m

Approach Navaids

Runway Type Ident Frequency Range Bearing (true) Bearing (mag) Slope Elevation
01 Localiser SL 109.90 MHz 18 nm / 33 km 359.58° 8.82° - 177 ft / 54 m (AMSL)
01 Glidescope SL 109.90 MHz 10 nm / 19 km 359.69° 8.93° 3.00° 177 ft / 54 m (AMSL)

Popular Alternatives